createdAt,value
2023-01-13T00:00:12.491Z,511.3
2023-01-13T00:01:14.334Z,511.3
2023-01-13T00:02:16.517Z,511.3
2023-01-13T00:03:18.393Z,511.3
2023-01-13T00:04:20.300Z,511.4
2023-01-13T00:05:22.241Z,510.9
2023-01-13T00:06:24.114Z,511.1
2023-01-13T00:07:26.082Z,510.9
2023-01-13T00:08:27.898Z,510.8
2023-01-13T00:09:29.744Z,510.8
2023-01-13T00:10:31.800Z,510.6
2023-01-13T00:11:33.567Z,510.7
2023-01-13T00:12:35.397Z,510.6
2023-01-13T00:13:37.214Z,510.7
2023-01-13T00:14:42.058Z,510.8
2023-01-13T00:15:44.016Z,510.7
2023-01-13T00:16:45.856Z,510.8
2023-01-13T00:17:47.753Z,510.6
2023-01-13T00:18:49.456Z,510.5
2023-01-13T00:19:51.166Z,510.8
2023-01-13T00:20:53.162Z,510.5
2023-01-13T00:21:55.018Z,511.1
2023-01-13T00:22:56.857Z,510.9
2023-01-13T00:23:58.543Z,510.6
2023-01-13T00:25:00.249Z,510.7
2023-01-13T00:26:02.102Z,510.7
2023-01-13T00:27:04.049Z,510.8
2023-01-13T00:28:05.911Z,510.9
2023-01-13T00:29:07.665Z,510.6
2023-01-13T00:30:09.398Z,510.6
2023-01-13T00:31:11.584Z,510.8
2023-01-13T00:32:13.520Z,510.6
2023-01-13T00:33:15.385Z,510.7
2023-01-13T00:34:17.217Z,510.6
2023-01-13T00:35:19.100Z,510.6
2023-01-13T00:36:21.033Z,510.7
2023-01-13T00:37:22.830Z,510.5
2023-01-13T00:38:24.715Z,510.2
2023-01-13T00:39:26.611Z,510.8
2023-01-13T00:40:28.511Z,509.9
2023-01-13T00:41:30.357Z,510.5
2023-01-13T00:42:32.306Z,510.5
2023-01-13T00:43:34.175Z,510.3
2023-01-13T00:44:36.027Z,510.6
2023-01-13T00:45:37.758Z,511
2023-01-13T00:46:39.798Z,510.9
2023-01-13T00:47:41.806Z,510.9
2023-01-13T00:48:43.641Z,510.9
2023-01-13T00:49:45.506Z,510.4
2023-01-13T00:50:47.231Z,510.6
2023-01-13T00:51:48.923Z,510.7
2023-01-13T00:52:50.731Z,510.7
2023-01-13T00:53:52.693Z,510.9
2023-01-13T00:54:54.523Z,511.1
2023-01-13T00:55:56.256Z,511
2023-01-13T00:56:58.110Z,511
2023-01-13T00:57:59.973Z,511
2023-01-13T00:59:01.806Z,511.1
2023-01-13T01:00:03.668Z,511.6
2023-01-13T01:01:06.060Z,511.6
2023-01-13T01:02:08.463Z,511.6
2023-01-13T01:03:10.305Z,511.7
2023-01-13T01:04:12.392Z,512.2
2023-01-13T01:05:14.246Z,512
2023-01-13T01:06:16.159Z,512.1
2023-01-13T01:07:18.266Z,512.2
2023-01-13T01:08:20.103Z,512.2
2023-01-13T01:09:21.957Z,512.2
2023-01-13T01:10:23.801Z,512.6
2023-01-13T01:11:25.781Z,512.6
2023-01-13T01:12:27.704Z,512.6
2023-01-13T01:13:29.699Z,512.7
2023-01-13T01:14:31.531Z,512.5
2023-01-13T01:15:33.352Z,512.9
2023-01-13T01:16:35.654Z,513.2
2023-01-13T01:17:37.470Z,512.8
2023-01-13T01:18:39.218Z,513.1
2023-01-13T01:19:41.309Z,512.9
2023-01-13T01:20:43.036Z,513.1
2023-01-13T01:21:44.814Z,513
2023-01-13T01:22:46.581Z,512.9
2023-01-13T01:23:48.467Z,513.1
2023-01-13T01:24:50.414Z,513
2023-01-13T01:25:52.291Z,513.2
2023-01-13T01:26:54.119Z,513.1
2023-01-13T01:27:56.177Z,513
2023-01-13T01:28:58.018Z,513
2023-01-13T01:29:59.876Z,513.2
2023-01-13T01:31:01.842Z,513.1
2023-01-13T01:32:03.596Z,513.3
2023-01-13T01:33:05.434Z,513.2
2023-01-13T01:34:07.369Z,513.1
2023-01-13T01:35:09.242Z,513.2
2023-01-13T01:36:11.077Z,513.1
2023-01-13T01:37:12.915Z,513.3
2023-01-13T01:38:14.883Z,513.2
2023-01-13T01:39:16.830Z,513.4
2023-01-13T01:40:18.811Z,513.5
2023-01-13T01:41:20.505Z,513.9
2023-01-13T01:42:22.387Z,513.6
2023-01-13T01:43:24.234Z,513.8
2023-01-13T01:44:26.182Z,514
2023-01-13T01:45:28.091Z,514
2023-01-13T01:46:30.350Z,514.2
2023-01-13T01:47:32.274Z,514.1
2023-01-13T01:48:34.092Z,514
2023-01-13T01:49:36.086Z,514
2023-01-13T01:50:37.923Z,514.1
2023-01-13T01:51:39.889Z,514.2
2023-01-13T01:52:41.702Z,514
2023-01-13T01:53:43.955Z,514.3
2023-01-13T01:54:45.636Z,514.2
2023-01-13T01:55:47.380Z,514.3
2023-01-13T01:56:49.114Z,514
2023-01-13T01:57:50.957Z,513.7
2023-01-13T01:58:52.800Z,513.9
2023-01-13T01:59:54.661Z,513.9
2023-01-13T02:00:56.991Z,514
2023-01-13T02:01:59.664Z,513.8
2023-01-13T02:03:01.537Z,513.7
2023-01-13T02:04:03.374Z,514.1
2023-01-13T02:05:05.326Z,514.2
2023-01-13T02:06:07.207Z,514.1
2023-01-13T02:07:09.026Z,514.1
2023-01-13T02:08:10.981Z,514.1
2023-01-13T02:09:12.762Z,514
2023-01-13T02:10:14.680Z,514.1
2023-01-13T02:11:16.528Z,514.5
2023-01-13T02:12:18.380Z,514.2
2023-01-13T02:13:20.301Z,514.4
2023-01-13T02:14:22.293Z,514.2
2023-01-13T02:15:24.136Z,514.1
2023-01-13T02:16:26.000Z,514.7
2023-01-13T02:17:27.729Z,514.7
2023-01-13T02:18:29.619Z,514.4
2023-01-13T02:19:31.471Z,514.6
2023-01-13T02:20:33.288Z,514.6
2023-01-13T02:21:35.168Z,514.6
2023-01-13T02:22:36.986Z,515
2023-01-13T02:23:38.870Z,515
2023-01-13T02:24:41.003Z,515
2023-01-13T02:25:42.940Z,515.1
2023-01-13T02:26:44.903Z,514.9
2023-01-13T02:27:47.354Z,515
2023-01-13T02:28:49.353Z,515.1
2023-01-13T02:29:51.264Z,514.9
2023-01-13T02:30:53.110Z,515
2023-01-13T02:31:55.207Z,514.9
2023-01-13T02:32:57.230Z,515
2023-01-13T02:33:59.079Z,515.1
2023-01-13T02:35:00.920Z,515.1
2023-01-13T02:36:02.775Z,514.6
2023-01-13T02:37:04.600Z,514.4
2023-01-13T02:38:06.601Z,514.7
2023-01-13T02:39:08.319Z,514.7
2023-01-13T02:40:10.175Z,514.6
2023-01-13T02:41:12.120Z,514.8
2023-01-13T02:42:13.872Z,514.7
2023-01-13T02:43:15.830Z,514.7
2023-01-13T02:44:17.571Z,514.3
2023-01-13T02:45:19.569Z,514.5
2023-01-13T02:46:21.579Z,514.7
2023-01-13T02:47:23.395Z,514.4
2023-01-13T02:48:25.191Z,514.5
2023-01-13T02:49:27.146Z,514.9
2023-01-13T02:50:28.994Z,514.4
2023-01-13T02:51:30.695Z,514.6
2023-01-13T02:52:32.709Z,514.6
2023-01-13T02:53:34.572Z,514.6
2023-01-13T02:54:36.394Z,514.8
2023-01-13T02:55:38.478Z,514.7
2023-01-13T02:56:40.329Z,514.7
2023-01-13T02:57:42.039Z,514.6
2023-01-13T02:58:43.919Z,514.5
2023-01-13T02:59:45.841Z,514.6
2023-01-13T03:00:47.878Z,514.9
2023-01-13T03:01:50.095Z,514.9
2023-01-13T03:02:52.167Z,514.7
2023-01-13T03:03:53.984Z,514.5
2023-01-13T03:04:55.905Z,514.6
2023-01-13T03:05:58.067Z,514.6
2023-01-13T03:06:59.915Z,514.4
2023-01-13T03:08:01.906Z,514.6
2023-01-13T03:09:03.730Z,514.7
2023-01-13T03:10:05.782Z,514.9
2023-01-13T03:11:07.746Z,514.6
2023-01-13T03:12:09.551Z,514.4
2023-01-13T03:13:14.348Z,514.7
2023-01-13T03:14:16.257Z,514.7
2023-01-13T03:15:18.068Z,514.8
2023-01-13T03:16:20.189Z,514.4
2023-01-13T03:17:22.150Z,514.5
2023-01-13T03:18:23.964Z,514.4
2023-01-13T03:19:25.767Z,514.7
2023-01-13T03:20:27.699Z,514.5
2023-01-13T03:21:29.472Z,514.5
2023-01-13T03:22:31.486Z,514.6
2023-01-13T03:23:33.460Z,514.3
2023-01-13T03:24:35.453Z,514.6
2023-01-13T03:25:39.661Z,514.6
2023-01-13T03:26:41.511Z,514.4
2023-01-13T03:27:43.391Z,514.8
2023-01-13T03:28:45.217Z,514.5
2023-01-13T03:29:47.178Z,514.3
2023-01-13T03:30:49.253Z,514.2
2023-01-13T03:31:51.072Z,514.5
2023-01-13T03:32:55.762Z,514.4
2023-01-13T03:33:57.530Z,514.5
2023-01-13T03:34:59.395Z,514.5
2023-01-13T03:36:01.362Z,514.1
2023-01-13T03:37:03.193Z,514
2023-01-13T03:38:05.147Z,514
2023-01-13T03:39:07.117Z,514
2023-01-13T03:40:08.867Z,514.2
2023-01-13T03:41:10.691Z,514.1
2023-01-13T03:42:12.656Z,514
2023-01-13T03:43:14.745Z,514
2023-01-13T03:44:19.321Z,514.2
2023-01-13T03:45:21.157Z,513.9
2023-01-13T03:46:23.558Z,514.2
2023-01-13T03:47:25.578Z,514.2
2023-01-13T03:48:27.542Z,513.8
2023-01-13T03:49:29.388Z,513.8
2023-01-13T03:50:31.229Z,514.1
2023-01-13T03:51:32.996Z,513.8
2023-01-13T03:52:34.969Z,513.7
2023-01-13T03:53:36.901Z,513.6
2023-01-13T03:54:38.741Z,513.5
2023-01-13T03:55:40.594Z,513.4
2023-01-13T03:56:42.399Z,513.6
2023-01-13T03:57:44.496Z,513.6
2023-01-13T03:58:46.345Z,513.6
2023-01-13T03:59:48.196Z,514
2023-01-13T04:00:49.943Z,513.7
2023-01-13T04:01:52.423Z,513.9
2023-01-13T04:02:54.453Z,513.7
2023-01-13T04:03:56.580Z,513.6
2023-01-13T04:04:58.465Z,513.9
2023-01-13T04:06:00.424Z,513.9
2023-01-13T04:07:02.486Z,513.7
2023-01-13T04:08:04.336Z,513.9
2023-01-13T04:09:06.179Z,513.6
2023-01-13T04:10:08.072Z,513.5
2023-01-13T04:11:09.859Z,513.5
2023-01-13T04:12:11.690Z,513.5
2023-01-13T04:13:13.578Z,513.7
2023-01-13T04:14:15.417Z,513.7
2023-01-13T04:15:17.365Z,513.4
2023-01-13T04:16:19.368Z,513.4
2023-01-13T04:17:21.189Z,513.2
2023-01-13T04:18:23.135Z,513
2023-01-13T04:19:25.011Z,512.9
2023-01-13T04:20:26.822Z,512.6
2023-01-13T04:21:28.792Z,512.9
2023-01-13T04:22:30.926Z,512.9
2023-01-13T04:23:32.827Z,512.8
2023-01-13T04:24:34.650Z,512.5
2023-01-13T04:25:36.636Z,512.6
2023-01-13T04:26:38.436Z,512.5
2023-01-13T04:27:40.300Z,512.6
2023-01-13T04:28:42.256Z,512.5
2023-01-13T04:29:44.015Z,512.3
2023-01-13T04:30:46.192Z,512.1
2023-01-13T04:31:48.017Z,512.2
2023-01-13T04:32:49.838Z,512
2023-01-13T04:33:51.802Z,511.9
2023-01-13T04:34:53.615Z,511.8
2023-01-13T04:35:55.494Z,511.9
2023-01-13T04:36:57.358Z,511.8
2023-01-13T04:37:59.203Z,511.9
2023-01-13T04:39:01.153Z,511.7
2023-01-13T04:40:02.999Z,511.9
2023-01-13T04:41:04.889Z,511.7
2023-01-13T04:42:06.823Z,511.6
2023-01-13T04:43:08.772Z,511.8
2023-01-13T04:44:10.706Z,511.8
2023-01-13T04:45:12.576Z,511.9
2023-01-13T04:46:14.828Z,511.8
2023-01-13T04:47:16.638Z,511.8
2023-01-13T04:48:18.530Z,511.8
2023-01-13T04:49:20.470Z,511.8
2023-01-13T04:50:22.226Z,511.6
2023-01-13T04:51:24.090Z,511.4
2023-01-13T04:52:25.929Z,511.7
2023-01-13T04:53:27.922Z,511.5
2023-01-13T04:54:30.039Z,512
2023-01-13T04:55:31.885Z,511.5
2023-01-13T04:56:33.752Z,511.8
2023-01-13T04:57:35.590Z,511.5
2023-01-13T04:58:37.535Z,511.3
2023-01-13T04:59:39.382Z,511.1
2023-01-13T05:00:41.236Z,511.2
2023-01-13T05:01:43.647Z,511.3
2023-01-13T05:02:45.455Z,511.2
2023-01-13T05:03:47.407Z,511.5
2023-01-13T05:04:49.584Z,511.4
2023-01-13T05:05:51.527Z,511.3
2023-01-13T05:06:53.298Z,511.6
2023-01-13T05:07:55.109Z,511.3
2023-01-13T05:08:56.969Z,511.6
2023-01-13T05:09:58.919Z,511.3
2023-01-13T05:11:00.953Z,511
2023-01-13T05:12:02.841Z,510.6
2023-01-13T05:13:04.628Z,510.8
2023-01-13T05:14:06.490Z,510.5
2023-01-13T05:15:08.510Z,510.9
2023-01-13T05:16:12.082Z,510.8
2023-01-13T05:17:13.896Z,510.9
2023-01-13T05:18:15.755Z,510.5
2023-01-13T05:19:17.720Z,510.5
2023-01-13T05:20:19.558Z,510.8
2023-01-13T05:21:21.504Z,510.9
2023-01-13T05:22:23.257Z,510.7
2023-01-13T05:23:25.108Z,510.6
2023-01-13T05:24:27.068Z,510.4
2023-01-13T05:25:28.902Z,510.5
2023-01-13T05:26:30.857Z,510.4
2023-01-13T05:27:32.742Z,510.4
2023-01-13T05:28:34.820Z,510.3
2023-01-13T05:29:36.832Z,510.6
2023-01-13T05:30:38.789Z,510.5
2023-01-13T05:31:40.638Z,510.3
2023-01-13T05:32:42.472Z,510.7
2023-01-13T05:33:44.228Z,510.3
2023-01-13T05:34:46.171Z,510.7
2023-01-13T05:35:48.270Z,510.9
2023-01-13T05:36:50.093Z,510.4
2023-01-13T05:37:51.899Z,510.3
2023-01-13T05:38:53.774Z,510.1
2023-01-13T05:39:55.643Z,510.4
2023-01-13T05:41:00.039Z,510
2023-01-13T05:42:01.893Z,509.7
2023-01-13T05:43:03.733Z,510.1
2023-01-13T05:44:05.727Z,509.9
2023-01-13T05:45:07.555Z,509.7
2023-01-13T05:46:09.957Z,509.6
2023-01-13T05:47:11.851Z,509.3
2023-01-13T05:48:13.820Z,509.6
2023-01-13T05:49:15.773Z,509.7
2023-01-13T05:50:17.555Z,509.7
2023-01-13T05:51:19.458Z,509.5
2023-01-13T05:52:21.314Z,509.8
2023-01-13T05:53:23.302Z,509.6
2023-01-13T05:54:25.216Z,509.6
2023-01-13T05:55:27.080Z,509.8
2023-01-13T05:56:29.034Z,509.4
2023-01-13T05:57:30.879Z,509.1
2023-01-13T05:58:32.850Z,509.4
2023-01-13T05:59:34.743Z,509.3
2023-01-13T06:00:36.647Z,509.4
2023-01-13T06:01:38.483Z,509.4
2023-01-13T06:02:40.683Z,509.3
2023-01-13T06:03:42.583Z,509.1
2023-01-13T06:04:44.721Z,509.1
2023-01-13T06:05:46.613Z,508.8
2023-01-13T06:06:48.535Z,509.1
2023-01-13T06:07:50.388Z,508.8
2023-01-13T06:08:52.232Z,508.8
2023-01-13T06:09:54.114Z,508.8
2023-01-13T06:10:55.947Z,508.6
2023-01-13T06:11:57.718Z,508.9
2023-01-13T06:12:59.564Z,508.7
2023-01-13T06:14:01.637Z,508.6
2023-01-13T06:15:03.440Z,508.4
2023-01-13T06:16:05.543Z,508.7
2023-01-13T06:17:07.368Z,508.4
2023-01-13T06:18:09.228Z,508.6
2023-01-13T06:19:10.971Z,508.4
2023-01-13T06:20:12.743Z,508
2023-01-13T06:21:14.782Z,508.3
2023-01-13T06:22:16.635Z,508.4
2023-01-13T06:23:18.334Z,508
2023-01-13T06:24:20.143Z,508.4
2023-01-13T06:25:22.260Z,508
2023-01-13T06:26:24.202Z,508.4
2023-01-13T06:27:26.180Z,507.9
2023-01-13T06:28:28.026Z,508.1
2023-01-13T06:29:29.992Z,507.8
2023-01-13T06:30:31.935Z,508.4
2023-01-13T06:31:34.027Z,508.2
2023-01-13T06:32:36.036Z,508.1
2023-01-13T06:33:37.944Z,508.2
2023-01-13T06:34:39.816Z,507.9
2023-01-13T06:35:41.580Z,508.1
2023-01-13T06:36:43.515Z,508.1
2023-01-13T06:37:45.371Z,507.9
2023-01-13T06:38:47.229Z,508
2023-01-13T06:39:49.050Z,507.9
2023-01-13T06:40:51.039Z,507.8
2023-01-13T06:41:52.967Z,507.8
2023-01-13T06:42:54.723Z,507.8
2023-01-13T06:43:56.574Z,507.5
2023-01-13T06:44:58.560Z,507.7
2023-01-13T06:46:00.429Z,507.6
2023-01-13T06:47:02.599Z,507.6
2023-01-13T06:48:04.411Z,507.3
2023-01-13T06:49:06.238Z,507.6
2023-01-13T06:50:08.029Z,507.2
2023-01-13T06:51:10.030Z,507.5
2023-01-13T06:52:11.941Z,507.2
2023-01-13T06:53:13.959Z,507.2
2023-01-13T06:54:15.708Z,507.3
2023-01-13T06:55:17.558Z,507.2
2023-01-13T06:56:19.525Z,507.5
2023-01-13T06:57:21.484Z,507.6
2023-01-13T06:58:23.633Z,507.6
2023-01-13T06:59:25.481Z,507.4
2023-01-13T07:00:27.447Z,507.4
2023-01-13T07:01:29.979Z,507.4
2023-01-13T07:02:32.147Z,507.3
2023-01-13T07:03:33.917Z,507.3
2023-01-13T07:04:35.729Z,507.1
2023-01-13T07:05:37.692Z,507.1
2023-01-13T07:06:39.554Z,507
2023-01-13T07:07:41.636Z,507.1
2023-01-13T07:08:43.572Z,506.9
2023-01-13T07:09:45.296Z,507.1
2023-01-13T07:10:47.239Z,507.4
2023-01-13T07:11:49.208Z,507.2
2023-01-13T07:12:51.035Z,507.3
2023-01-13T07:13:52.934Z,507.7
2023-01-13T07:14:54.841Z,507.4
2023-01-13T07:15:56.832Z,507.5
2023-01-13T07:16:58.656Z,507.6
2023-01-13T07:18:00.867Z,507.9
2023-01-13T07:19:02.776Z,507.8
2023-01-13T07:20:04.704Z,507.6
2023-01-13T07:21:06.703Z,507.8
2023-01-13T07:22:08.650Z,507.7
2023-01-13T07:23:10.883Z,507.6
2023-01-13T07:24:12.743Z,507.8
2023-01-13T07:25:14.589Z,507.6
2023-01-13T07:26:16.447Z,508
2023-01-13T07:27:18.282Z,507.6
2023-01-13T07:28:20.240Z,507.7
2023-01-13T07:29:22.127Z,507.6
2023-01-13T07:30:23.969Z,507.6
2023-01-13T07:31:26.312Z,507.8
2023-01-13T07:32:28.261Z,507.9
2023-01-13T07:33:30.099Z,507.9
2023-01-13T07:34:32.079Z,507.7
2023-01-13T07:35:34.423Z,507.9
2023-01-13T07:36:36.276Z,507.7
2023-01-13T07:37:38.328Z,507.6
2023-01-13T07:38:40.384Z,508
2023-01-13T07:39:42.231Z,507.9
2023-01-13T07:40:44.072Z,507.7
2023-01-13T07:41:45.892Z,507.9
2023-01-13T07:42:48.249Z,507.9
2023-01-13T07:43:50.059Z,507.9
2023-01-13T07:44:51.886Z,508
2023-01-13T07:45:54.067Z,508.1
2023-01-13T07:46:55.919Z,507.8
2023-01-13T07:47:57.854Z,507.7
2023-01-13T07:48:59.716Z,507.9
2023-01-13T07:50:01.555Z,507.9
2023-01-13T07:51:03.390Z,507.8
2023-01-13T07:52:05.251Z,507.9
2023-01-13T07:53:07.236Z,507.8
2023-01-13T07:54:09.074Z,507.7
2023-01-13T07:55:11.219Z,507.8
2023-01-13T07:56:13.182Z,507.7
2023-01-13T07:57:15.011Z,507.7
2023-01-13T07:58:16.887Z,507.5
2023-01-13T07:59:18.825Z,507.5
2023-01-13T08:00:20.668Z,507.4
2023-01-13T08:01:23.167Z,507.1
2023-01-13T08:02:26.385Z,507.1
2023-01-13T08:03:28.274Z,507.1
2023-01-13T08:04:30.237Z,507.5
2023-01-13T08:05:32.058Z,507.1
2023-01-13T08:06:34.036Z,506.9
2023-01-13T08:07:36.030Z,506.8
2023-01-13T08:08:37.814Z,506.7
2023-01-13T08:09:39.799Z,506.5
2023-01-13T08:10:41.718Z,506.7
2023-01-13T08:11:43.574Z,506.7
2023-01-13T08:12:57.598Z,506.7
2023-01-13T08:13:59.568Z,506.7
2023-01-13T08:15:01.824Z,506.6
2023-01-13T08:16:03.627Z,506.6
2023-01-13T08:17:05.421Z,506.6
2023-01-13T08:18:07.387Z,506.6
2023-01-13T08:19:09.358Z,506.3
2023-01-13T08:20:11.168Z,506.5
2023-01-13T08:21:13.046Z,506.5
2023-01-13T08:22:14.828Z,506.8
2023-01-13T08:23:16.749Z,506.6
2023-01-13T08:24:18.652Z,506.3
2023-01-13T08:25:20.493Z,506.8
2023-01-13T08:26:22.716Z,506.6
2023-01-13T08:27:24.628Z,506.5
2023-01-13T08:28:26.864Z,507
2023-01-13T08:29:28.875Z,506.9
2023-01-13T08:30:31.147Z,507.1
2023-01-13T08:31:33.675Z,506.9
2023-01-13T08:32:35.625Z,507
2023-01-13T08:33:37.750Z,507.1
2023-01-13T08:34:39.639Z,506.8
2023-01-13T08:35:41.572Z,506.9
2023-01-13T08:36:43.423Z,506.8
2023-01-13T08:37:45.389Z,506.9
2023-01-13T08:38:47.496Z,507
2023-01-13T08:39:49.395Z,507.1
2023-01-13T08:40:51.346Z,507.3
2023-01-13T08:41:53.207Z,507.4
2023-01-13T08:42:55.050Z,507.5
2023-01-13T08:43:57.313Z,507.8
2023-01-13T08:44:59.673Z,507.4
2023-01-13T08:46:02.215Z,507.3
2023-01-13T08:47:04.166Z,507.5
2023-01-13T08:48:05.985Z,507.9
2023-01-13T08:49:08.123Z,507.9
2023-01-13T08:50:09.999Z,507.8
2023-01-13T08:51:12.017Z,507.9
2023-01-13T08:52:13.976Z,507.6
2023-01-13T08:53:16.125Z,507.8
2023-01-13T08:54:17.973Z,507.6
2023-01-13T08:55:19.845Z,507.8
2023-01-13T08:56:21.881Z,507.7
2023-01-13T08:57:23.965Z,507.9
2023-01-13T08:58:26.326Z,508
2023-01-13T08:59:28.251Z,508
2023-01-13T09:00:30.167Z,508.1
2023-01-13T09:01:32.334Z,507.8
2023-01-13T09:02:34.406Z,508.1
2023-01-13T09:03:36.456Z,508
2023-01-13T09:04:38.691Z,508.2
2023-01-13T09:05:40.673Z,508.1
2023-01-13T09:06:42.638Z,508.2
2023-01-13T09:07:44.871Z,508.3
2023-01-13T09:08:46.824Z,508.1
2023-01-13T09:09:48.778Z,508.5
2023-01-13T09:10:50.985Z,508.1
2023-01-13T09:11:52.970Z,508.4
2023-01-13T09:12:54.854Z,508.3
2023-01-13T09:13:57.166Z,508.2
2023-01-13T09:14:58.968Z,508.6
2023-01-13T09:16:01.531Z,508.5
2023-01-13T09:17:03.485Z,508.5
2023-01-13T09:18:05.272Z,508.6
2023-01-13T09:19:07.474Z,508.8
2023-01-13T09:20:09.342Z,508.6
2023-01-13T09:21:11.344Z,508.7
2023-01-13T09:22:13.239Z,508.5
2023-01-13T09:23:15.207Z,508.7
2023-01-13T09:24:17.035Z,508.6
2023-01-13T09:25:19.026Z,509.1
2023-01-13T09:26:21.507Z,509.1
2023-01-13T09:27:23.394Z,509
2023-01-13T09:28:25.363Z,508.8
2023-01-13T09:29:27.225Z,509.4
2023-01-13T09:30:29.080Z,509.4
2023-01-13T09:31:31.242Z,509.4
2023-01-13T09:32:33.589Z,509.4
2023-01-13T09:33:35.351Z,509.4
2023-01-13T09:34:37.240Z,509.8
2023-01-13T09:35:39.256Z,509.5
2023-01-13T09:36:41.408Z,509.6
2023-01-13T09:37:43.256Z,509.4
2023-01-13T09:38:45.098Z,509.4
2023-01-13T09:39:47.027Z,509.4
2023-01-13T09:40:48.882Z,509.7
2023-01-13T09:41:50.761Z,509.4
2023-01-13T09:42:52.577Z,509.4
2023-01-13T09:43:54.656Z,509.4
2023-01-13T09:44:56.366Z,509.4
2023-01-13T09:45:58.639Z,509.3
2023-01-13T09:47:00.917Z,509
2023-01-13T09:48:02.766Z,509.2
2023-01-13T09:49:04.733Z,509.3
2023-01-13T09:50:06.833Z,509.1
2023-01-13T09:51:08.959Z,509.2
2023-01-13T09:52:10.864Z,508.9
2023-01-13T09:53:12.741Z,509.1
2023-01-13T09:54:14.912Z,509
2023-01-13T09:55:16.740Z,509
2023-01-13T09:56:18.595Z,509.2
2023-01-13T09:57:20.485Z,509.4
2023-01-13T09:58:22.725Z,509.5
2023-01-13T09:59:24.769Z,509.4
2023-01-13T10:00:27.113Z,509.6
2023-01-13T10:01:29.205Z,509.7
2023-01-13T10:02:31.170Z,509.7
2023-01-13T10:03:34.189Z,509.6
2023-01-13T10:04:36.301Z,509.6
2023-01-13T10:05:38.119Z,509.6
2023-01-13T10:06:40.066Z,509.5
2023-01-13T10:07:41.844Z,509.2
2023-01-13T10:08:43.665Z,509.5
2023-01-13T10:09:45.635Z,509.4
2023-01-13T10:10:47.667Z,509.5
2023-01-13T10:11:49.613Z,509.6
2023-01-13T10:12:51.464Z,509.6
2023-01-13T10:13:53.326Z,509.8
2023-01-13T10:14:55.273Z,510.1
2023-01-13T10:15:57.363Z,510.4
2023-01-13T10:16:59.341Z,510.5
2023-01-13T10:18:01.448Z,510.4
2023-01-13T10:19:03.243Z,510.7
2023-01-13T10:20:05.266Z,510.7
2023-01-13T10:21:07.612Z,510.7
2023-01-13T10:22:10.390Z,510.6
2023-01-13T10:23:12.229Z,510.6
2023-01-13T10:24:14.486Z,510.7
2023-01-13T10:25:16.436Z,510.7
2023-01-13T10:26:18.789Z,511.2
2023-01-13T10:27:20.700Z,510.8
2023-01-13T10:28:22.536Z,511.1
2023-01-13T10:29:24.963Z,511.2
2023-01-13T10:30:27.217Z,511
2023-01-13T10:31:29.907Z,511
2023-01-13T10:32:31.690Z,511
2023-01-13T10:33:33.599Z,511.3
2023-01-13T10:34:35.432Z,511.3
2023-01-13T10:35:37.505Z,511.3
2023-01-13T10:36:39.381Z,511.3
2023-01-13T10:37:41.537Z,511.2
2023-01-13T10:38:43.668Z,511.7
2023-01-13T10:39:46.914Z,511.6
2023-01-13T10:40:48.810Z,511.6
2023-01-13T10:41:50.637Z,511.6
2023-01-13T10:42:52.477Z,511.6
2023-01-13T10:43:54.529Z,511.6
2023-01-13T10:44:56.562Z,511.5
2023-01-13T10:45:58.453Z,511.7
2023-01-13T10:47:00.555Z,511.8
2023-01-13T10:48:02.351Z,511.8
2023-01-13T10:49:04.214Z,511.6
2023-01-13T10:50:10.037Z,512.2
2023-01-13T10:51:12.203Z,512.3
2023-01-13T10:52:14.437Z,512
2023-01-13T10:53:16.553Z,512.2
2023-01-13T10:54:18.372Z,512.2
2023-01-13T10:55:20.213Z,512.5
2023-01-13T10:56:22.079Z,512.3
2023-01-13T10:57:23.856Z,512.2
2023-01-13T10:58:25.561Z,512.6
2023-01-13T10:59:27.527Z,512.8
2023-01-13T11:00:29.370Z,512.6
2023-01-13T11:01:31.682Z,512.5
2023-01-13T11:02:34.464Z,512.7
2023-01-13T11:03:36.350Z,512.5
2023-01-13T11:04:38.532Z,512.8
2023-01-13T11:05:41.039Z,512.6
2023-01-13T11:06:43.403Z,512.8
2023-01-13T11:07:45.294Z,513
2023-01-13T11:08:47.285Z,513.2
2023-01-13T11:09:49.290Z,513.2
2023-01-13T11:10:51.749Z,513.1
2023-01-13T11:11:53.733Z,513.1
2023-01-13T11:12:55.758Z,513.4
2023-01-13T11:13:57.623Z,513.6
2023-01-13T11:14:59.570Z,513.8
2023-01-13T11:16:01.631Z,513.7
2023-01-13T11:17:03.515Z,513.6
2023-01-13T11:18:05.786Z,514.1
2023-01-13T11:19:07.684Z,513.9
2023-01-13T11:20:09.641Z,513.9
2023-01-13T11:21:11.600Z,514.1
2023-01-13T11:22:13.659Z,514.1
2023-01-13T11:23:15.495Z,513.9
2023-01-13T11:24:17.433Z,514.3
2023-01-13T11:25:19.291Z,514.4
2023-01-13T11:26:21.137Z,514.7
2023-01-13T11:27:22.998Z,515
2023-01-13T11:28:24.971Z,514.9
2023-01-13T11:29:26.819Z,514.8
2023-01-13T11:30:28.557Z,514.6
2023-01-13T11:31:30.770Z,514.8
2023-01-13T11:32:32.779Z,514.3
2023-01-13T11:33:34.695Z,514.5
2023-01-13T11:34:36.551Z,514.3
2023-01-13T11:35:38.411Z,514.6
2023-01-13T11:36:40.560Z,515
2023-01-13T11:37:42.312Z,515.1
2023-01-13T11:38:44.017Z,515
2023-01-13T11:39:46.045Z,515.2
2023-01-13T11:40:47.862Z,515.3
2023-01-13T11:41:49.819Z,515.8
2023-01-13T11:42:51.624Z,515.7
2023-01-13T11:43:53.515Z,515.8
2023-01-13T11:44:55.362Z,515.7
2023-01-13T11:45:57.252Z,515.6
2023-01-13T11:46:59.460Z,515.4
2023-01-13T11:48:01.313Z,515.4
2023-01-13T11:49:03.188Z,515.6
2023-01-13T11:50:04.985Z,515.1
2023-01-13T11:51:06.872Z,515.2
2023-01-13T11:52:08.837Z,515.5
2023-01-13T11:53:10.772Z,515.6
2023-01-13T11:54:12.622Z,515.6
2023-01-13T11:55:14.907Z,515.5
2023-01-13T11:56:16.740Z,515.4
2023-01-13T11:57:18.561Z,515.7
2023-01-13T11:58:20.408Z,515.7
2023-01-13T11:59:22.284Z,515.6
2023-01-13T12:00:24.280Z,515.6
2023-01-13T12:01:26.372Z,515.6
2023-01-13T12:02:28.515Z,515.5
2023-01-13T12:03:30.774Z,515.7
2023-01-13T12:04:32.653Z,515.9
2023-01-13T12:05:34.574Z,515.6
2023-01-13T12:06:36.883Z,515.8
2023-01-13T12:07:38.729Z,516
2023-01-13T12:08:40.689Z,516
2023-01-13T12:09:42.517Z,516
2023-01-13T12:10:44.526Z,515.9
2023-01-13T12:11:46.547Z,516.3
2023-01-13T12:12:48.396Z,516.6
2023-01-13T12:13:50.236Z,516.5
2023-01-13T12:14:52.085Z,516.2
2023-01-13T12:15:53.944Z,516.4
2023-01-13T12:16:56.265Z,516.5
2023-01-13T12:17:58.146Z,516.2
2023-01-13T12:19:00.110Z,516.3
2023-01-13T12:20:02.043Z,516.5
2023-01-13T12:21:04.022Z,516.6
2023-01-13T12:22:05.856Z,516.5
2023-01-13T12:23:07.795Z,516.7
2023-01-13T12:24:10.285Z,516.8
2023-01-13T12:25:12.231Z,516.9
2023-01-13T12:26:14.354Z,516.7
2023-01-13T12:27:16.526Z,516.9
2023-01-13T12:28:18.815Z,516.8
2023-01-13T12:29:20.658Z,516.4
2023-01-13T12:30:22.501Z,516.6
2023-01-13T12:31:24.649Z,516.4
2023-01-13T12:32:26.513Z,516.3
2023-01-13T12:33:28.366Z,516.4
2023-01-13T12:34:30.158Z,516.7
2023-01-13T12:35:32.109Z,516.3
2023-01-13T12:36:34.124Z,516.5
2023-01-13T12:37:36.051Z,516.6
2023-01-13T12:38:38.520Z,516.5
2023-01-13T12:39:40.488Z,516.1
2023-01-13T12:40:42.438Z,516.3
2023-01-13T12:41:44.443Z,516.4
2023-01-13T12:42:46.343Z,515.9
2023-01-13T12:43:48.301Z,516.3
2023-01-13T12:44:50.248Z,516.5
2023-01-13T12:45:52.428Z,516.4
2023-01-13T12:46:54.250Z,516.5
2023-01-13T12:47:56.236Z,516.3
2023-01-13T12:48:58.179Z,516.2
2023-01-13T12:49:59.993Z,516.4
2023-01-13T12:51:02.400Z,516.6
2023-01-13T12:52:04.224Z,516.1
2023-01-13T12:53:06.190Z,516.1
2023-01-13T12:54:08.121Z,516
2023-01-13T12:55:09.980Z,516.2
2023-01-13T12:56:11.710Z,516
2023-01-13T12:57:13.489Z,516
2023-01-13T12:58:15.577Z,516.5
2023-01-13T12:59:17.777Z,516.2
2023-01-13T13:00:19.647Z,516.2
2023-01-13T13:01:21.998Z,516.4
2023-01-13T13:02:24.264Z,515.8
2023-01-13T13:03:26.557Z,516
2023-01-13T13:04:28.389Z,515.8
2023-01-13T13:05:30.158Z,515.7
2023-01-13T13:06:32.172Z,515.6
2023-01-13T13:07:34.444Z,515.5
2023-01-13T13:08:36.271Z,515.6
2023-01-13T13:09:38.121Z,515.4
2023-01-13T13:10:39.979Z,515.6
2023-01-13T13:11:42.153Z,515.3
2023-01-13T13:12:44.340Z,515.4
2023-01-13T13:13:46.244Z,515.1
2023-01-13T13:14:48.968Z,514.9
2023-01-13T13:15:50.840Z,515.1
2023-01-13T13:16:53.180Z,514.8
2023-01-13T13:17:55.103Z,514.8
2023-01-13T13:18:57.208Z,514.6
2023-01-13T13:19:59.678Z,514.5
2023-01-13T13:21:05.516Z,514.7
2023-01-13T13:22:08.041Z,514.4
2023-01-13T13:23:09.957Z,514.7